sensor_id;sensor_type;location;lat;lon;timestamp;temperature;humidity
16674;DHT22;8450;52.654;10.326;2023-10-13T00:02:07;13.50;99.90
16674;DHT22;8450;52.654;10.326;2023-10-13T00:04:33;13.60;99.90
16674;DHT22;8450;52.654;10.326;2023-10-13T00:07:02;13.60;99.90
16674;DHT22;8450;52.654;10.326;2023-10-13T00:09:28;13.60;99.90
16674;DHT22;8450;52.654;10.326;2023-10-13T00:12:04;13.60;99.90
16674;DHT22;8450;52.654;10.326;2023-10-13T00:14:34;13.60;99.90
16674;DHT22;8450;52.654;10.326;2023-10-13T00:17:04;13.60;99.90
16674;DHT22;8450;52.654;10.326;2023-10-13T00:19:35;13.60;99.90
16674;DHT22;8450;52.654;10.326;2023-10-13T00:22:10;13.70;99.90
16674;DHT22;8450;52.654;10.326;2023-10-13T00:24:37;13.70;99.90
16674;DHT22;8450;52.654;10.326;2023-10-13T00:27:12;13.70;99.90
16674;DHT22;8450;52.654;10.326;2023-10-13T00:29:51;13.70;99.90
16674;DHT22;8450;52.654;10.326;2023-10-13T00:32:16;13.70;99.90
16674;DHT22;8450;52.654;10.326;2023-10-13T00:34:48;13.80;99.90
16674;DHT22;8450;52.654;10.326;2023-10-13T00:37:13;13.70;99.90
16674;DHT22;8450;52.654;10.326;2023-10-13T00:39:44;13.80;99.90
16674;DHT22;8450;52.654;10.326;2023-10-13T00:42:11;13.80;99.90
16674;DHT22;8450;52.654;10.326;2023-10-13T00:44:56;13.80;99.90
16674;DHT22;8450;52.654;10.326;2023-10-13T00:47:22;13.80;99.90
16674;DHT22;8450;52.654;10.326;2023-10-13T00:50:06;13.90;99.90
16674;DHT22;8450;52.654;10.326;2023-10-13T00:52:37;13.90;99.90
16674;DHT22;8450;52.654;10.326;2023-10-13T00:55:07;13.90;99.90
16674;DHT22;8450;52.654;10.326;2023-10-13T00:57:34;13.90;99.90
16674;DHT22;8450;52.654;10.326;2023-10-13T01:00:02;14.00;99.90
16674;DHT22;8450;52.654;10.326;2023-10-13T01:02:38;14.00;99.90
16674;DHT22;8450;52.654;10.326;2023-10-13T01:05:04;13.90;99.90
16674;DHT22;8450;52.654;10.326;2023-10-13T01:07:30;14.00;99.90
16674;DHT22;8450;52.654;10.326;2023-10-13T01:09:56;14.00;99.90
16674;DHT22;8450;52.654;10.326;2023-10-13T01:12:22;14.00;99.90
16674;DHT22;8450;52.654;10.326;2023-10-13T01:14:51;14.00;99.90
16674;DHT22;8450;52.654;10.326;2023-10-13T01:17:16;14.00;99.90
16674;DHT22;8450;52.654;10.326;2023-10-13T01:19:43;14.00;99.90
16674;DHT22;8450;52.654;10.326;2023-10-13T01:22:11;14.10;99.90
16674;DHT22;8450;52.654;10.326;2023-10-13T01:24:37;14.10;99.90
16674;DHT22;8450;52.654;10.326;2023-10-13T01:27:06;14.10;99.90
16674;DHT22;8450;52.654;10.326;2023-10-13T01:29:46;14.10;99.90
16674;DHT22;8450;52.654;10.326;2023-10-13T01:32:21;14.10;99.90
16674;DHT22;8450;52.654;10.326;2023-10-13T01:34:47;14.10;99.90
16674;DHT22;8450;52.654;10.326;2023-10-13T01:37:21;14.10;99.90
16674;DHT22;8450;52.654;10.326;2023-10-13T01:39:47;14.10;99.90
16674;DHT22;8450;52.654;10.326;2023-10-13T01:42:15;14.10;99.90
16674;DHT22;8450;52.654;10.326;2023-10-13T01:44:45;14.20;99.90
16674;DHT22;8450;52.654;10.326;2023-10-13T01:47:11;14.20;99.90
16674;DHT22;8450;52.654;10.326;2023-10-13T01:49:38;14.20;99.90
16674;DHT22;8450;52.654;10.326;2023-10-13T01:52:23;14.20;99.90
16674;DHT22;8450;52.654;10.326;2023-10-13T01:54:50;14.20;99.90
16674;DHT22;8450;52.654;10.326;2023-10-13T01:57:16;14.30;99.90
16674;DHT22;8450;52.654;10.326;2023-10-13T01:59:50;14.30;99.90
16674;DHT22;8450;52.654;10.326;2023-10-13T02:02:16;14.30;99.90
16674;DHT22;8450;52.654;10.326;2023-10-13T02:04:54;14.40;99.90
16674;DHT22;8450;52.654;10.326;2023-10-13T02:07:26;14.40;99.90
16674;DHT22;8450;52.654;10.326;2023-10-13T02:10:00;14.40;99.90
16674;DHT22;8450;52.654;10.326;2023-10-13T02:12:29;14.40;99.90
16674;DHT22;8450;52.654;10.326;2023-10-13T02:15:03;14.40;99.90
16674;DHT22;8450;52.654;10.326;2023-10-13T02:17:30;14.40;99.90
16674;DHT22;8450;52.654;10.326;2023-10-13T02:20:09;14.40;99.90
16674;DHT22;8450;52.654;10.326;2023-10-13T02:22:40;14.50;99.90
16674;DHT22;8450;52.654;10.326;2023-10-13T02:25:18;14.50;99.90
16674;DHT22;8450;52.654;10.326;2023-10-13T02:28:03;14.50;99.90
16674;DHT22;8450;52.654;10.326;2023-10-13T02:30:41;14.50;99.90
16674;DHT22;8450;52.654;10.326;2023-10-13T02:33:11;14.50;99.90
16674;DHT22;8450;52.654;10.326;2023-10-13T02:35:38;14.50;99.90
16674;DHT22;8450;52.654;10.326;2023-10-13T02:38:08;14.60;99.90
16674;DHT22;8450;52.654;10.326;2023-10-13T02:40:38;14.60;99.90
16674;DHT22;8450;52.654;10.326;2023-10-13T02:43:04;14.50;99.90
16674;DHT22;8450;52.654;10.326;2023-10-13T02:45:33;14.60;99.90
16674;DHT22;8450;52.654;10.326;2023-10-13T02:48:03;14.60;99.90
16674;DHT22;8450;52.654;10.326;2023-10-13T02:50:37;14.60;99.90
16674;DHT22;8450;52.654;10.326;2023-10-13T02:53:04;14.60;99.90
16674;DHT22;8450;52.654;10.326;2023-10-13T02:55:54;14.60;99.90
16674;DHT22;8450;52.654;10.326;2023-10-13T02:58:21;14.70;99.90
16674;DHT22;8450;52.654;10.326;2023-10-13T03:00:46;14.70;99.90
16674;DHT22;8450;52.654;10.326;2023-10-13T03:03:12;14.70;99.90
16674;DHT22;8450;52.654;10.326;2023-10-13T03:05:40;14.70;99.90
16674;DHT22;8450;52.654;10.326;2023-10-13T03:08:08;14.70;99.90
16674;DHT22;8450;52.654;10.326;2023-10-13T03:10:36;14.70;99.90
16674;DHT22;8450;52.654;10.326;2023-10-13T03:13:05;14.60;99.90
16674;DHT22;8450;52.654;10.326;2023-10-13T03:15:33;14.80;99.90
16674;DHT22;8450;52.654;10.326;2023-10-13T03:18:02;14.80;99.90
16674;DHT22;8450;52.654;10.326;2023-10-13T03:20:28;14.70;99.90
16674;DHT22;8450;52.654;10.326;2023-10-13T03:22:58;14.70;99.90
16674;DHT22;8450;52.654;10.326;2023-10-13T03:25:24;14.70;99.90
16674;DHT22;8450;52.654;10.326;2023-10-13T03:27:51;14.70;99.90
16674;DHT22;8450;52.654;10.326;2023-10-13T03:30:17;14.70;99.90
16674;DHT22;8450;52.654;10.326;2023-10-13T03:32:43;14.70;99.90
16674;DHT22;8450;52.654;10.326;2023-10-13T03:35:14;14.70;99.90
16674;DHT22;8450;52.654;10.326;2023-10-13T03:37:53;14.80;99.90
16674;DHT22;8450;52.654;10.326;2023-10-13T03:40:19;14.70;99.90
16674;DHT22;8450;52.654;10.326;2023-10-13T03:42:48;14.70;99.90
16674;DHT22;8450;52.654;10.326;2023-10-13T03:45:35;14.80;99.90
16674;DHT22;8450;52.654;10.326;2023-10-13T03:48:15;14.80;99.90
16674;DHT22;8450;52.654;10.326;2023-10-13T03:50:52;14.80;99.90
16674;DHT22;8450;52.654;10.326;2023-10-13T03:53:27;14.80;99.90
16674;DHT22;8450;52.654;10.326;2023-10-13T03:55:59;14.80;99.90
16674;DHT22;8450;52.654;10.326;2023-10-13T03:58:38;14.80;99.90
16674;DHT22;8450;52.654;10.326;2023-10-13T04:01:06;14.80;99.90
16674;DHT22;8450;52.654;10.326;2023-10-13T04:03:35;14.80;99.90
16674;DHT22;8450;52.654;10.326;2023-10-13T04:06:04;14.80;99.90
16674;DHT22;8450;52.654;10.326;2023-10-13T04:08:34;14.80;99.90
16674;DHT22;8450;52.654;10.326;2023-10-13T04:11:09;14.80;99.90
16674;DHT22;8450;52.654;10.326;2023-10-13T04:13:53;14.80;99.90
16674;DHT22;8450;52.654;10.326;2023-10-13T04:16:37;14.80;99.90
16674;DHT22;8450;52.654;10.326;2023-10-13T04:19:17;14.80;99.90
16674;DHT22;8450;52.654;10.326;2023-10-13T04:21:52;14.80;99.90
16674;DHT22;8450;52.654;10.326;2023-10-13T04:24:25;14.80;99.90
16674;DHT22;8450;52.654;10.326;2023-10-13T04:27:03;14.80;99.90
16674;DHT22;8450;52.654;10.326;2023-10-13T04:29:38;14.80;99.90
16674;DHT22;8450;52.654;10.326;2023-10-13T04:32:22;14.90;99.90
16674;DHT22;8450;52.654;10.326;2023-10-13T04:34:59;14.80;99.90
16674;DHT22;8450;52.654;10.326;2023-10-13T04:37:40;14.80;99.90
16674;DHT22;8450;52.654;10.326;2023-10-13T04:40:18;14.80;99.90
16674;DHT22;8450;52.654;10.326;2023-10-13T04:42:50;14.80;99.90
16674;DHT22;8450;52.654;10.326;2023-10-13T04:45:20;14.80;99.90
16674;DHT22;8450;52.654;10.326;2023-10-13T04:47:59;14.80;99.90
16674;DHT22;8450;52.654;10.326;2023-10-13T04:50:49;14.80;99.90
16674;DHT22;8450;52.654;10.326;2023-10-13T04:53:24;14.90;99.90
16674;DHT22;8450;52.654;10.326;2023-10-13T04:56:00;14.80;99.90
16674;DHT22;8450;52.654;10.326;2023-10-13T04:58:32;14.80;99.90
16674;DHT22;8450;52.654;10.326;2023-10-13T05:01:04;14.80;99.90
16674;DHT22;8450;52.654;10.326;2023-10-13T05:04:02;14.80;99.90
16674;DHT22;8450;52.654;10.326;2023-10-13T05:06:46;14.80;99.90
16674;DHT22;8450;52.654;10.326;2023-10-13T05:09:13;14.80;99.90
16674;DHT22;8450;52.654;10.326;2023-10-13T05:11:58;14.80;99.90
16674;DHT22;8450;52.654;10.326;2023-10-13T05:14:42;14.80;99.90
16674;DHT22;8450;52.654;10.326;2023-10-13T05:17:26;14.80;99.90
16674;DHT22;8450;52.654;10.326;2023-10-13T05:20:11;14.80;99.90
16674;DHT22;8450;52.654;10.326;2023-10-13T05:22:55;14.80;99.90
16674;DHT22;8450;52.654;10.326;2023-10-13T05:25:39;14.80;99.90
16674;DHT22;8450;52.654;10.326;2023-10-13T05:28:23;14.80;99.90
16674;DHT22;8450;52.654;10.326;2023-10-13T05:31:08;14.80;99.90
16674;DHT22;8450;52.654;10.326;2023-10-13T05:33:52;14.70;99.90
16674;DHT22;8450;52.654;10.326;2023-10-13T05:36:37;14.70;99.90
16674;DHT22;8450;52.654;10.326;2023-10-13T05:39:22;14.70;99.90
16674;DHT22;8450;52.654;10.326;2023-10-13T05:42:06;14.70;99.90
16674;DHT22;8450;52.654;10.326;2023-10-13T05:44:51;14.70;99.90
16674;DHT22;8450;52.654;10.326;2023-10-13T05:47:35;14.60;99.90
16674;DHT22;8450;52.654;10.326;2023-10-13T05:50:04;14.70;99.90
16674;DHT22;8450;52.654;10.326;2023-10-13T05:52:38;14.70;99.90
16674;DHT22;8450;52.654;10.326;2023-10-13T05:55:25;14.70;99.90
16674;DHT22;8450;52.654;10.326;2023-10-13T05:58:09;14.70;99.90
16674;DHT22;8450;52.654;10.326;2023-10-13T06:00:53;14.70;99.90
16674;DHT22;8450;52.654;10.326;2023-10-13T06:03:38;14.70;99.90
16674;DHT22;8450;52.654;10.326;2023-10-13T06:06:22;14.70;99.90
16674;DHT22;8450;52.654;10.326;2023-10-13T06:09:06;14.70;99.90
16674;DHT22;8450;52.654;10.326;2023-10-13T06:11:50;14.70;99.90
16674;DHT22;8450;52.654;10.326;2023-10-13T06:14:34;14.70;99.90
16674;DHT22;8450;52.654;10.326;2023-10-13T06:17:18;14.70;99.90
16674;DHT22;8450;52.654;10.326;2023-10-13T06:20:03;14.70;99.90
16674;DHT22;8450;52.654;10.326;2023-10-13T06:22:48;14.70;99.90
16674;DHT22;8450;52.654;10.326;2023-10-13T06:25:32;14.80;99.90
16674;DHT22;8450;52.654;10.326;2023-10-13T06:28:17;14.80;99.90
16674;DHT22;8450;52.654;10.326;2023-10-13T06:31:03;14.90;99.90
16674;DHT22;8450;52.654;10.326;2023-10-13T06:33:31;14.90;99.90
16674;DHT22;8450;52.654;10.326;2023-10-13T06:36:03;15.00;99.90
16674;DHT22;8450;52.654;10.326;2023-10-13T06:38:29;15.00;99.90
16674;DHT22;8450;52.654;10.326;2023-10-13T06:41:05;15.00;99.90
16674;DHT22;8450;52.654;10.326;2023-10-13T06:43:32;15.00;99.90
16674;DHT22;8450;52.654;10.326;2023-10-13T06:46:00;14.90;99.90
16674;DHT22;8450;52.654;10.326;2023-10-13T06:48:26;15.00;99.90
16674;DHT22;8450;52.654;10.326;2023-10-13T06:50:52;14.90;99.90
16674;DHT22;8450;52.654;10.326;2023-10-13T06:53:19;15.00;99.90
16674;DHT22;8450;52.654;10.326;2023-10-13T06:55:44;15.00;99.90
16674;DHT22;8450;52.654;10.326;2023-10-13T06:58:13;15.10;99.90
16674;DHT22;8450;52.654;10.326;2023-10-13T07:00:42;15.10;99.90
16674;DHT22;8450;52.654;10.326;2023-10-13T07:03:19;15.10;99.90
16674;DHT22;8450;52.654;10.326;2023-10-13T07:05:45;15.20;99.90
16674;DHT22;8450;52.654;10.326;2023-10-13T07:08:14;15.20;99.90
16674;DHT22;8450;52.654;10.326;2023-10-13T07:10:55;15.30;99.90
16674;DHT22;8450;52.654;10.326;2023-10-13T07:13:31;15.30;99.90
16674;DHT22;8450;52.654;10.326;2023-10-13T07:15:57;15.30;99.90
16674;DHT22;8450;52.654;10.326;2023-10-13T07:18:30;15.30;99.90
16674;DHT22;8450;52.654;10.326;2023-10-13T07:21:04;15.30;99.90
16674;DHT22;8450;52.654;10.326;2023-10-13T07:23:37;15.40;99.90
16674;DHT22;8450;52.654;10.326;2023-10-13T07:26:04;15.40;99.90
16674;DHT22;8450;52.654;10.326;2023-10-13T07:28:31;15.50;99.90
16674;DHT22;8450;52.654;10.326;2023-10-13T07:30:57;15.40;99.90
16674;DHT22;8450;52.654;10.326;2023-10-13T07:33:37;15.50;99.90
16674;DHT22;8450;52.654;10.326;2023-10-13T07:36:07;15.50;99.90
16674;DHT22;8450;52.654;10.326;2023-10-13T07:38:56;15.50;99.90
16674;DHT22;8450;52.654;10.326;2023-10-13T07:41:40;15.60;99.90
16674;DHT22;8450;52.654;10.326;2023-10-13T07:44:07;15.60;99.90
16674;DHT22;8450;52.654;10.326;2023-10-13T07:46:33;15.60;99.90
16674;DHT22;8450;52.654;10.326;2023-10-13T07:49:00;15.60;99.90
16674;DHT22;8450;52.654;10.326;2023-10-13T07:51:36;15.70;99.90
16674;DHT22;8450;52.654;10.326;2023-10-13T07:54:13;15.70;99.90
16674;DHT22;8450;52.654;10.326;2023-10-13T07:56:47;15.70;99.90
16674;DHT22;8450;52.654;10.326;2023-10-13T07:59:13;15.70;99.90
16674;DHT22;8450;52.654;10.326;2023-10-13T08:01:40;15.70;99.90
16674;DHT22;8450;52.654;10.326;2023-10-13T08:04:09;15.80;99.90
16674;DHT22;8450;52.654;10.326;2023-10-13T08:06:41;15.80;99.90
16674;DHT22;8450;52.654;10.326;2023-10-13T08:09:09;15.80;99.90
16674;DHT22;8450;52.654;10.326;2023-10-13T08:11:38;15.80;99.90
16674;DHT22;8450;52.654;10.326;2023-10-13T08:14:04;15.80;99.90
16674;DHT22;8450;52.654;10.326;2023-10-13T08:16:38;15.90;99.90
16674;DHT22;8450;52.654;10.326;2023-10-13T08:19:24;15.90;99.90
16674;DHT22;8450;52.654;10.326;2023-10-13T08:21:54;15.90;99.90
16674;DHT22;8450;52.654;10.326;2023-10-13T08:24:24;15.90;99.90
16674;DHT22;8450;52.654;10.326;2023-10-13T08:26:54;16.00;99.90
16674;DHT22;8450;52.654;10.326;2023-10-13T08:29:49;16.00;99.90
16674;DHT22;8450;52.654;10.326;2023-10-13T08:32:22;16.00;99.90
16674;DHT22;8450;52.654;10.326;2023-10-13T08:35:02;16.00;99.90
16674;DHT22;8450;52.654;10.326;2023-10-13T08:37:30;16.00;99.90
16674;DHT22;8450;52.654;10.326;2023-10-13T08:39:59;16.10;99.90
16674;DHT22;8450;52.654;10.326;2023-10-13T08:42:34;16.10;99.90
16674;DHT22;8450;52.654;10.326;2023-10-13T08:45:27;16.10;99.90
16674;DHT22;8450;52.654;10.326;2023-10-13T08:47:57;16.00;99.90
16674;DHT22;8450;52.654;10.326;2023-10-13T08:50:48;16.20;99.90
16674;DHT22;8450;52.654;10.326;2023-10-13T08:53:21;16.20;99.90
16674;DHT22;8450;52.654;10.326;2023-10-13T08:56:07;16.20;99.90
16674;DHT22;8450;52.654;10.326;2023-10-13T08:58:50;16.20;99.90
16674;DHT22;8450;52.654;10.326;2023-10-13T09:04:07;16.30;99.90
16674;DHT22;8450;52.654;10.326;2023-10-13T09:12:29;16.60;99.90
16674;DHT22;8450;52.654;10.326;2023-10-13T09:14:59;16.70;99.90
16674;DHT22;8450;52.654;10.326;2023-10-13T09:17:32;16.70;99.90
16674;DHT22;8450;52.654;10.326;2023-10-13T09:20:05;16.70;99.90
16674;DHT22;8450;52.654;10.326;2023-10-13T09:22:54;16.70;99.90
16674;DHT22;8450;52.654;10.326;2023-10-13T09:25:30;16.80;99.90
16674;DHT22;8450;52.654;10.326;2023-10-13T09:28:12;16.80;99.90
16674;DHT22;8450;52.654;10.326;2023-10-13T09:30:51;16.90;99.90
16674;DHT22;8450;52.654;10.326;2023-10-13T09:33:29;16.90;99.90
16674;DHT22;8450;52.654;10.326;2023-10-13T09:36:07;16.90;99.90
16674;DHT22;8450;52.654;10.326;2023-10-13T09:38:34;17.00;99.90
16674;DHT22;8450;52.654;10.326;2023-10-13T09:41:01;17.00;99.90
16674;DHT22;8450;52.654;10.326;2023-10-13T09:43:44;17.10;99.90
16674;DHT22;8450;52.654;10.326;2023-10-13T09:46:10;17.10;99.90
16674;DHT22;8450;52.654;10.326;2023-10-13T09:48:47;17.20;99.90
16674;DHT22;8450;52.654;10.326;2023-10-13T09:51:18;17.20;99.90
16674;DHT22;8450;52.654;10.326;2023-10-13T09:54:23;17.20;99.90
16674;DHT22;8450;52.654;10.326;2023-10-13T09:56:56;17.20;99.90
16674;DHT22;8450;52.654;10.326;2023-10-13T09:59:32;17.30;99.90
16674;DHT22;8450;52.654;10.326;2023-10-13T10:02:07;17.30;99.90
16674;DHT22;8450;52.654;10.326;2023-10-13T10:04:55;17.30;99.90
16674;DHT22;8450;52.654;10.326;2023-10-13T10:07:57;17.40;99.90
16674;DHT22;8450;52.654;10.326;2023-10-13T10:10:51;17.50;99.90
16674;DHT22;8450;52.654;10.326;2023-10-13T10:13:39;17.60;99.90
16674;DHT22;8450;52.654;10.326;2023-10-13T10:16:11;17.80;99.90
16674;DHT22;8450;52.654;10.326;2023-10-13T10:18:41;18.10;99.90
16674;DHT22;8450;52.654;10.326;2023-10-13T10:21:07;18.30;99.90
16674;DHT22;8450;52.654;10.326;2023-10-13T10:23:33;18.40;99.90
16674;DHT22;8450;52.654;10.326;2023-10-13T10:26:14;18.40;99.90
16674;DHT22;8450;52.654;10.326;2023-10-13T10:28:42;18.50;99.90
16674;DHT22;8450;52.654;10.326;2023-10-13T10:31:09;18.60;99.90
16674;DHT22;8450;52.654;10.326;2023-10-13T10:33:38;18.60;99.90
16674;DHT22;8450;52.654;10.326;2023-10-13T10:36:04;18.60;99.90
16674;DHT22;8450;52.654;10.326;2023-10-13T10:38:30;18.80;99.90
16674;DHT22;8450;52.654;10.326;2023-10-13T10:41:06;18.80;99.90
16674;DHT22;8450;52.654;10.326;2023-10-13T10:46:29;18.90;99.90
16674;DHT22;8450;52.654;10.326;2023-10-13T10:49:06;18.90;99.90
16674;DHT22;8450;52.654;10.326;2023-10-13T10:51:36;18.90;99.90
16674;DHT22;8450;52.654;10.326;2023-10-13T10:54:18;19.00;99.90
16674;DHT22;8450;52.654;10.326;2023-10-13T10:56:44;19.10;99.90
16674;DHT22;8450;52.654;10.326;2023-10-13T10:59:09;19.10;99.90
16674;DHT22;8450;52.654;10.326;2023-10-13T11:01:46;19.40;99.90
16674;DHT22;8450;52.654;10.326;2023-10-13T11:04:13;19.50;99.90
16674;DHT22;8450;52.654;10.326;2023-10-13T11:11:53;19.90;99.90
16674;DHT22;8450;52.654;10.326;2023-10-13T11:14:27;19.90;99.90
16674;DHT22;8450;52.654;10.326;2023-10-13T11:16:57;19.90;99.90
16674;DHT22;8450;52.654;10.326;2023-10-13T11:19:40;19.90;99.90
16674;DHT22;8450;52.654;10.326;2023-10-13T11:22:17;19.90;99.90
16674;DHT22;8450;52.654;10.326;2023-10-13T11:24:57;20.00;99.90
16674;DHT22;8450;52.654;10.326;2023-10-13T11:27:31;20.10;99.90
16674;DHT22;8450;52.654;10.326;2023-10-13T11:30:18;20.30;99.90
16674;DHT22;8450;52.654;10.326;2023-10-13T11:33:11;20.40;99.90
16674;DHT22;8450;52.654;10.326;2023-10-13T11:35:43;20.60;99.90
16674;DHT22;8450;52.654;10.326;2023-10-13T11:38:25;20.70;99.90
16674;DHT22;8450;52.654;10.326;2023-10-13T11:41:02;20.80;99.90
16674;DHT22;8450;52.654;10.326;2023-10-13T11:43:51;20.80;99.90
16674;DHT22;8450;52.654;10.326;2023-10-13T11:46:25;21.00;99.90
16674;DHT22;8450;52.654;10.326;2023-10-13T11:49:04;21.20;99.90
16674;DHT22;8450;52.654;10.326;2023-10-13T11:51:40;21.20;99.90
16674;DHT22;8450;52.654;10.326;2023-10-13T11:54:19;21.20;99.90
16674;DHT22;8450;52.654;10.326;2023-10-13T11:56:48;21.30;99.90
16674;DHT22;8450;52.654;10.326;2023-10-13T11:59:13;21.30;99.90
16674;DHT22;8450;52.654;10.326;2023-10-13T12:01:50;21.40;99.90
16674;DHT22;8450;52.654;10.326;2023-10-13T12:04:36;21.40;99.90
16674;DHT22;8450;52.654;10.326;2023-10-13T12:07:22;21.30;99.90
16674;DHT22;8450;52.654;10.326;2023-10-13T12:09:48;21.30;99.90
16674;DHT22;8450;52.654;10.326;2023-10-13T12:14:46;21.50;99.90
16674;DHT22;8450;52.654;10.326;2023-10-13T12:17:23;21.60;99.90
16674;DHT22;8450;52.654;10.326;2023-10-13T12:20:03;21.80;99.90
16674;DHT22;8450;52.654;10.326;2023-10-13T12:22:36;21.80;99.90
16674;DHT22;8450;52.654;10.326;2023-10-13T12:25:08;21.90;99.90
16674;DHT22;8450;52.654;10.326;2023-10-13T12:27:53;21.90;99.90
16674;DHT22;8450;52.654;10.326;2023-10-13T12:30:23;22.00;99.90
16674;DHT22;8450;52.654;10.326;2023-10-13T12:33:01;22.10;99.90
16674;DHT22;8450;52.654;10.326;2023-10-13T12:35:39;22.10;99.90
16674;DHT22;8450;52.654;10.326;2023-10-13T12:38:25;22.30;99.90
16674;DHT22;8450;52.654;10.326;2023-10-13T12:41:09;22.30;99.90
16674;DHT22;8450;52.654;10.326;2023-10-13T12:43:55;22.30;99.90
16674;DHT22;8450;52.654;10.326;2023-10-13T12:46:46;22.50;99.90
16674;DHT22;8450;52.654;10.326;2023-10-13T12:49:35;22.30;99.90
16674;DHT22;8450;52.654;10.326;2023-10-13T12:52:13;22.10;99.90
16674;DHT22;8450;52.654;10.326;2023-10-13T12:54:46;22.30;99.90
16674;DHT22;8450;52.654;10.326;2023-10-13T12:57:16;22.30;99.90
16674;DHT22;8450;52.654;10.326;2023-10-13T12:59:42;22.20;99.90
16674;DHT22;8450;52.654;10.326;2023-10-13T13:02:08;22.20;99.90
16674;DHT22;8450;52.654;10.326;2023-10-13T13:04:43;22.30;99.90
16674;DHT22;8450;52.654;10.326;2023-10-13T13:07:16;22.40;99.90
16674;DHT22;8450;52.654;10.326;2023-10-13T13:09:42;22.30;99.90
16674;DHT22;8450;52.654;10.326;2023-10-13T13:12:08;22.20;99.90
16674;DHT22;8450;52.654;10.326;2023-10-13T13:14:38;22.30;99.90
16674;DHT22;8450;52.654;10.326;2023-10-13T13:17:06;22.60;99.90
16674;DHT22;8450;52.654;10.326;2023-10-13T13:19:36;22.60;99.90
16674;DHT22;8450;52.654;10.326;2023-10-13T13:22:05;22.50;99.90
16674;DHT22;8450;52.654;10.326;2023-10-13T13:24:34;22.70;99.90
16674;DHT22;8450;52.654;10.326;2023-10-13T13:27:00;22.70;99.90
16674;DHT22;8450;52.654;10.326;2023-10-13T13:29:29;22.50;99.90
16674;DHT22;8450;52.654;10.326;2023-10-13T13:31:56;22.40;99.90
16674;DHT22;8450;52.654;10.326;2023-10-13T13:34:22;22.20;99.90
16674;DHT22;8450;52.654;10.326;2023-10-13T13:36:47;22.10;99.90
16674;DHT22;8450;52.654;10.326;2023-10-13T13:39:21;22.10;99.90
16674;DHT22;8450;52.654;10.326;2023-10-13T13:41:55;22.10;99.90
16674;DHT22;8450;52.654;10.326;2023-10-13T13:44:25;22.10;99.90
16674;DHT22;8450;52.654;10.326;2023-10-13T13:46:57;22.00;99.90
16674;DHT22;8450;52.654;10.326;2023-10-13T13:49:23;21.90;99.90
16674;DHT22;8450;52.654;10.326;2023-10-13T13:51:56;21.90;99.90
16674;DHT22;8450;52.654;10.326;2023-10-13T13:54:21;21.80;99.90
16674;DHT22;8450;52.654;10.326;2023-10-13T13:56:48;21.80;99.90
16674;DHT22;8450;52.654;10.326;2023-10-13T13:59:13;21.70;99.90
16674;DHT22;8450;52.654;10.326;2023-10-13T14:01:45;21.70;99.90
16674;DHT22;8450;52.654;10.326;2023-10-13T14:04:11;21.60;99.90
16674;DHT22;8450;52.654;10.326;2023-10-13T14:06:36;21.60;99.90
16674;DHT22;8450;52.654;10.326;2023-10-13T14:09:03;21.50;99.90
16674;DHT22;8450;52.654;10.326;2023-10-13T14:11:39;21.50;99.90
16674;DHT22;8450;52.654;10.326;2023-10-13T14:14:13;21.50;99.90
16674;DHT22;8450;52.654;10.326;2023-10-13T14:16:54;21.40;99.90
16674;DHT22;8450;52.654;10.326;2023-10-13T14:19:28;21.50;99.90
16674;DHT22;8450;52.654;10.326;2023-10-13T14:21:54;21.50;99.90
16674;DHT22;8450;52.654;10.326;2023-10-13T14:24:20;21.50;99.90
16674;DHT22;8450;52.654;10.326;2023-10-13T14:27:01;21.60;99.90
16674;DHT22;8450;52.654;10.326;2023-10-13T14:29:35;21.50;99.90
16674;DHT22;8450;52.654;10.326;2023-10-13T14:32:09;21.40;99.90
16674;DHT22;8450;52.654;10.326;2023-10-13T14:34:42;21.40;99.90
16674;DHT22;8450;52.654;10.326;2023-10-13T14:37:09;21.40;99.90
16674;DHT22;8450;52.654;10.326;2023-10-13T14:39:54;21.40;99.90
16674;DHT22;8450;52.654;10.326;2023-10-13T14:42:26;21.40;99.90
16674;DHT22;8450;52.654;10.326;2023-10-13T14:44:52;21.30;99.90
16674;DHT22;8450;52.654;10.326;2023-10-13T14:47:25;21.30;99.90
16674;DHT22;8450;52.654;10.326;2023-10-13T14:49:54;21.30;99.90
16674;DHT22;8450;52.654;10.326;2023-10-13T14:52:23;21.30;99.90
16674;DHT22;8450;52.654;10.326;2023-10-13T14:54:49;21.10;99.90
16674;DHT22;8450;52.654;10.326;2023-10-13T14:57:22;21.10;99.90
16674;DHT22;8450;52.654;10.326;2023-10-13T14:59:51;21.10;99.90
16674;DHT22;8450;52.654;10.326;2023-10-13T15:02:17;21.10;99.90
16674;DHT22;8450;52.654;10.326;2023-10-13T15:04:43;21.10;99.90
16674;DHT22;8450;52.654;10.326;2023-10-13T15:07:08;21.10;99.90
16674;DHT22;8450;52.654;10.326;2023-10-13T15:09:34;21.10;99.90
16674;DHT22;8450;52.654;10.326;2023-10-13T15:11:59;21.10;99.90
16674;DHT22;8450;52.654;10.326;2023-10-13T15:14:30;21.00;99.90
16674;DHT22;8450;52.654;10.326;2023-10-13T15:16:58;21.00;99.90
16674;DHT22;8450;52.654;10.326;2023-10-13T15:19:26;21.00;99.90
16674;DHT22;8450;52.654;10.326;2023-10-13T15:21:51;21.00;99.90
16674;DHT22;8450;52.654;10.326;2023-10-13T15:24:18;20.90;99.90
16674;DHT22;8450;52.654;10.326;2023-10-13T15:26:46;20.90;99.90
16674;DHT22;8450;52.654;10.326;2023-10-13T15:29:18;20.90;99.90
16674;DHT22;8450;52.654;10.326;2023-10-13T15:31:51;20.80;99.90
16674;DHT22;8450;52.654;10.326;2023-10-13T15:34:25;20.90;99.90
16674;DHT22;8450;52.654;10.326;2023-10-13T15:36:53;20.80;99.90
16674;DHT22;8450;52.654;10.326;2023-10-13T15:39:20;20.80;99.90
16674;DHT22;8450;52.654;10.326;2023-10-13T15:41:50;20.80;99.90
16674;DHT22;8450;52.654;10.326;2023-10-13T15:44:20;20.70;99.90
16674;DHT22;8450;52.654;10.326;2023-10-13T15:46:46;20.70;99.90
16674;DHT22;8450;52.654;10.326;2023-10-13T15:49:18;20.70;99.90
16674;DHT22;8450;52.654;10.326;2023-10-13T15:51:43;20.60;99.90
16674;DHT22;8450;52.654;10.326;2023-10-13T15:54:10;20.60;99.90
16674;DHT22;8450;52.654;10.326;2023-10-13T15:59:09;20.60;99.90
16674;DHT22;8450;52.654;10.326;2023-10-13T16:01:34;20.60;99.90
16674;DHT22;8450;52.654;10.326;2023-10-13T16:04:00;20.50;99.90
16674;DHT22;8450;52.654;10.326;2023-10-13T16:06:33;20.50;99.90
16674;DHT22;8450;52.654;10.326;2023-10-13T16:08:58;20.70;99.90
16674;DHT22;8450;52.654;10.326;2023-10-13T16:11:24;20.60;99.90
16674;DHT22;8450;52.654;10.326;2023-10-13T16:13:50;20.60;99.90
16674;DHT22;8450;52.654;10.326;2023-10-13T16:16:22;20.50;99.90
16674;DHT22;8450;52.654;10.326;2023-10-13T16:18:52;20.50;99.90
16674;DHT22;8450;52.654;10.326;2023-10-13T16:21:19;20.40;99.90
16674;DHT22;8450;52.654;10.326;2023-10-13T16:23:46;20.40;99.90
16674;DHT22;8450;52.654;10.326;2023-10-13T16:26:19;20.50;99.90
16674;DHT22;8450;52.654;10.326;2023-10-13T16:28:51;20.40;99.90
16674;DHT22;8450;52.654;10.326;2023-10-13T16:31:23;20.30;99.90